sensor_id;sensor_type;location;lat;lon;timestamp;temperature;humidity
18729;DHT22;9493;51.884;5.188;2023-02-25T11:00:01;6.20;99.90
18729;DHT22;9493;51.884;5.188;2023-02-25T11:02:32;6.70;99.90
18729;DHT22;9493;51.884;5.188;2023-02-25T11:05:01;7.20;99.90
18729;DHT22;9493;51.884;5.188;2023-02-25T11:07:32;7.00;99.90
18729;DHT22;9493;51.884;5.188;2023-02-25T11:10:11;7.40;99.90
18729;DHT22;9493;51.884;5.188;2023-02-25T11:12:40;7.90;99.90
18729;DHT22;9493;51.884;5.188;2023-02-25T11:15:27;8.40;99.90
18729;DHT22;9493;51.884;5.188;2023-02-25T11:18:01;8.40;99.90
18729;DHT22;9493;51.884;5.188;2023-02-25T11:20:29;8.80;99.90
18729;DHT22;9493;51.884;5.188;2023-02-25T11:22:58;8.90;99.90
18729;DHT22;9493;51.884;5.188;2023-02-25T11:25:34;8.90;99.90
18729;DHT22;9493;51.884;5.188;2023-02-25T11:28:02;8.90;99.90
18729;DHT22;9493;51.884;5.188;2023-02-25T11:30:35;9.10;99.90
18729;DHT22;9493;51.884;5.188;2023-02-25T11:33:06;9.60;99.90
18729;DHT22;9493;51.884;5.188;2023-02-25T11:35:36;9.90;99.90
18729;DHT22;9493;51.884;5.188;2023-02-25T11:38:14;9.80;99.90
18729;DHT22;9493;51.884;5.188;2023-02-25T11:40:42;9.40;99.90
18729;DHT22;9493;51.884;5.188;2023-02-25T11:43:15;8.80;99.90
18729;DHT22;9493;51.884;5.188;2023-02-25T11:45:59;8.30;99.90
18729;DHT22;9493;51.884;5.188;2023-02-25T11:48:29;7.70;99.90
18729;DHT22;9493;51.884;5.188;2023-02-25T11:51:07;7.60;99.90
18729;DHT22;9493;51.884;5.188;2023-02-25T11:53:54;8.20;99.90
18729;DHT22;9493;51.884;5.188;2023-02-25T11:56:28;8.70;99.90
18729;DHT22;9493;51.884;5.188;2023-02-25T11:59:04;8.90;99.90
18729;DHT22;9493;51.884;5.188;2023-02-25T12:01:51;8.90;99.90
18729;DHT22;9493;51.884;5.188;2023-02-25T12:04:43;9.20;99.90
18729;DHT22;9493;51.884;5.188;2023-02-25T12:07:37;9.60;99.90
18729;DHT22;9493;51.884;5.188;2023-02-25T12:10:34;9.70;99.90
18729;DHT22;9493;51.884;5.188;2023-02-25T12:13:29;9.80;99.90
18729;DHT22;9493;51.884;5.188;2023-02-25T12:22:21;10.80;99.90
18729;DHT22;9493;51.884;5.188;2023-02-25T12:25:01;10.80;99.90
18729;DHT22;9493;51.884;5.188;2023-02-25T12:33:52;10.40;99.90
18729;DHT22;9493;51.884;5.188;2023-02-25T12:36:39;9.90;99.90
18729;DHT22;9493;51.884;5.188;2023-02-25T12:42:07;9.40;99.90
18729;DHT22;9493;51.884;5.188;2023-02-25T12:44:47;9.20;99.90
18729;DHT22;9493;51.884;5.188;2023-02-25T12:47:23;9.30;99.90
18729;DHT22;9493;51.884;5.188;2023-02-25T12:50:16;10.10;99.90
18729;DHT22;9493;51.884;5.188;2023-02-25T12:53:05;10.50;99.90
18729;DHT22;9493;51.884;5.188;2023-02-25T12:56:03;11.30;99.90
18729;DHT22;9493;51.884;5.188;2023-02-25T12:58:39;11.70;99.90
18729;DHT22;9493;51.884;5.188;2023-02-25T13:01:29;11.40;99.90
18729;DHT22;9493;51.884;5.188;2023-02-25T13:07:56;9.60;99.90
18729;DHT22;9493;51.884;5.188;2023-02-25T13:13:46;9.30;99.90
18729;DHT22;9493;51.884;5.188;2023-02-25T13:16:26;9.50;99.90
18729;DHT22;9493;51.884;5.188;2023-02-25T13:19:16;9.90;99.90
18729;DHT22;9493;51.884;5.188;2023-02-25T13:22:02;9.50;99.90
18729;DHT22;9493;51.884;5.188;2023-02-25T13:24:45;9.30;99.90
18729;DHT22;9493;51.884;5.188;2023-02-25T13:27:33;9.90;99.80
18729;DHT22;9493;51.884;5.188;2023-02-25T13:30:14;10.30;99.60
18729;DHT22;9493;51.884;5.188;2023-02-25T13:32:56;10.50;99.50
18729;DHT22;9493;51.884;5.188;2023-02-25T13:35:34;10.40;99.40
18729;DHT22;9493;51.884;5.188;2023-02-25T13:38:22;9.40;98.50
18729;DHT22;9493;51.884;5.188;2023-02-25T13:40:58;9.00;97.50
18729;DHT22;9493;51.884;5.188;2023-02-25T13:43:50;9.30;97.20
18729;DHT22;9493;51.884;5.188;2023-02-25T13:46:38;9.50;96.70
18729;DHT22;9493;51.884;5.188;2023-02-25T13:49:34;10.10;96.40
18729;DHT22;9493;51.884;5.188;2023-02-25T13:52:16;10.10;95.70
18729;DHT22;9493;51.884;5.188;2023-02-25T13:57:49;10.60;94.70
18729;DHT22;9493;51.884;5.188;2023-02-25T14:03:55;11.20;94.10
18729;DHT22;9493;51.884;5.188;2023-02-25T14:06:51;11.00;93.90
18729;DHT22;9493;51.884;5.188;2023-02-25T14:09:32;10.50;93.50
18729;DHT22;9493;51.884;5.188;2023-02-25T14:12:12;10.30;93.20
18729;DHT22;9493;51.884;5.188;2023-02-25T14:15:04;10.60;93.10
18729;DHT22;9493;51.884;5.188;2023-02-25T14:20:42;10.60;92.70
18729;DHT22;9493;51.884;5.188;2023-02-25T14:23:14;10.30;92.80
18729;DHT22;9493;51.884;5.188;2023-02-25T14:26:08;10.60;93.00
18729;DHT22;9493;51.884;5.188;2023-02-25T14:28:45;10.60;92.80
18729;DHT22;9493;51.884;5.188;2023-02-25T14:31:21;10.50;92.90
18729;DHT22;9493;51.884;5.188;2023-02-25T14:34:03;10.60;92.90
18729;DHT22;9493;51.884;5.188;2023-02-25T14:36:56;10.60;92.60
18729;DHT22;9493;51.884;5.188;2023-02-25T14:39:34;10.90;92.30
18729;DHT22;9493;51.884;5.188;2023-02-25T14:42:14;10.90;92.10
18729;DHT22;9493;51.884;5.188;2023-02-25T14:44:49;10.80;92.10
18729;DHT22;9493;51.884;5.188;2023-02-25T14:47:27;10.80;91.80
18729;DHT22;9493;51.884;5.188;2023-02-25T14:49:59;10.50;91.60
18729;DHT22;9493;51.884;5.188;2023-02-25T14:52:43;10.30;91.40
18729;DHT22;9493;51.884;5.188;2023-02-25T14:55:35;10.60;91.30
18729;DHT22;9493;51.884;5.188;2023-02-25T15:01:25;10.40;91.00
18729;DHT22;9493;51.884;5.188;2023-02-25T15:07:05;11.00;91.20
18729;DHT22;9493;51.884;5.188;2023-02-25T15:09:57;10.80;91.40
18729;DHT22;9493;51.884;5.188;2023-02-25T15:12:41;10.20;91.60
18729;DHT22;9493;51.884;5.188;2023-02-25T15:15:33;9.80;92.10
18729;DHT22;9493;51.884;5.188;2023-02-25T15:18:40;10.10;92.30
18729;DHT22;9493;51.884;5.188;2023-02-25T15:21:37;9.90;92.40
18729;DHT22;9493;51.884;5.188;2023-02-25T15:24:09;9.70;92.50
18729;DHT22;9493;51.884;5.188;2023-02-25T15:26:43;9.50;92.30
18729;DHT22;9493;51.884;5.188;2023-02-25T15:29:20;9.50;92.10
18729;DHT22;9493;51.884;5.188;2023-02-25T15:32:10;9.60;91.70
18729;DHT22;9493;51.884;5.188;2023-02-25T15:34:37;9.60;91.30
18729;DHT22;9493;51.884;5.188;2023-02-25T15:37:30;9.70;91.10
18729;DHT22;9493;51.884;5.188;2023-02-25T15:40:00;9.50;90.90
18729;DHT22;9493;51.884;5.188;2023-02-25T15:42:45;9.60;90.90
18729;DHT22;9493;51.884;5.188;2023-02-25T15:45:33;9.50;91.00
18729;DHT22;9493;51.884;5.188;2023-02-25T15:48:32;9.50;91.20
18729;DHT22;9493;51.884;5.188;2023-02-25T15:51:01;9.30;91.60
18729;DHT22;9493;51.884;5.188;2023-02-25T15:53:54;9.20;91.90
18729;DHT22;9493;51.884;5.188;2023-02-25T15:56:49;9.50;92.30
18729;DHT22;9493;51.884;5.188;2023-02-25T15:59:42;9.30;92.50
18729;DHT22;9493;51.884;5.188;2023-02-25T16:02:38;9.10;92.50
18729;DHT22;9493;51.884;5.188;2023-02-25T16:05:20;9.10;92.70
18729;DHT22;9493;51.884;5.188;2023-02-25T16:07:50;9.00;92.50
18729;DHT22;9493;51.884;5.188;2023-02-25T16:10:23;8.80;92.40
18729;DHT22;9493;51.884;5.188;2023-02-25T16:12:53;8.90;92.30
18729;DHT22;9493;51.884;5.188;2023-02-25T16:15:25;8.60;92.20
18729;DHT22;9493;51.884;5.188;2023-02-25T16:17:55;8.70;92.30
18729;DHT22;9493;51.884;5.188;2023-02-25T16:20:26;8.90;92.20
18729;DHT22;9493;51.884;5.188;2023-02-25T16:22:56;8.70;92.30
18729;DHT22;9493;51.884;5.188;2023-02-25T16:25:31;8.80;92.30
18729;DHT22;9493;51.884;5.188;2023-02-25T16:28:09;8.70;92.20
18729;DHT22;9493;51.884;5.188;2023-02-25T16:30:44;9.00;92.00
18729;DHT22;9493;51.884;5.188;2023-02-25T16:33:20;8.90;91.70
18729;DHT22;9493;51.884;5.188;2023-02-25T16:35:52;8.10;91.60
18729;DHT22;9493;51.884;5.188;2023-02-25T16:38:29;7.60;91.60
18729;DHT22;9493;51.884;5.188;2023-02-25T16:41:01;7.20;91.60
18729;DHT22;9493;51.884;5.188;2023-02-25T16:43:31;7.00;91.50
18729;DHT22;9493;51.884;5.188;2023-02-25T16:46:00;6.90;91.80
18729;DHT22;9493;51.884;5.188;2023-02-25T16:48:31;6.70;92.00
18729;DHT22;9493;51.884;5.188;2023-02-25T16:51:08;6.60;92.10
18729;DHT22;9493;51.884;5.188;2023-02-25T16:53:40;6.50;92.30
18729;DHT22;9493;51.884;5.188;2023-02-25T16:56:13;6.50;92.40
18729;DHT22;9493;51.884;5.188;2023-02-25T16:58:59;6.40;92.80
18729;DHT22;9493;51.884;5.188;2023-02-25T17:01:28;6.20;92.90
18729;DHT22;9493;51.884;5.188;2023-02-25T17:04:00;6.20;93.30
18729;DHT22;9493;51.884;5.188;2023-02-25T17:06:27;6.10;93.60
18729;DHT22;9493;51.884;5.188;2023-02-25T17:08:54;6.00;93.70
18729;DHT22;9493;51.884;5.188;2023-02-25T17:11:24;6.00;93.90
18729;DHT22;9493;51.884;5.188;2023-02-25T17:13:52;5.80;94.00
18729;DHT22;9493;51.884;5.188;2023-02-25T17:16:22;5.80;94.20
18729;DHT22;9493;51.884;5.188;2023-02-25T17:18:55;5.70;94.30
18729;DHT22;9493;51.884;5.188;2023-02-25T17:21:24;5.70;94.40
18729;DHT22;9493;51.884;5.188;2023-02-25T17:23:54;5.60;94.60
18729;DHT22;9493;51.884;5.188;2023-02-25T17:26:23;5.50;94.70
18729;DHT22;9493;51.884;5.188;2023-02-25T17:28:52;5.40;94.80
18729;DHT22;9493;51.884;5.188;2023-02-25T17:31:22;5.30;94.90
18729;DHT22;9493;51.884;5.188;2023-02-25T17:33:52;5.30;95.10
18729;DHT22;9493;51.884;5.188;2023-02-25T17:36:22;5.20;95.10
18729;DHT22;9493;51.884;5.188;2023-02-25T17:38:54;5.10;95.20
18729;DHT22;9493;51.884;5.188;2023-02-25T17:41:23;5.00;95.30
18729;DHT22;9493;51.884;5.188;2023-02-25T17:43:50;5.00;95.40
18729;DHT22;9493;51.884;5.188;2023-02-25T17:46:24;4.90;95.40
18729;DHT22;9493;51.884;5.188;2023-02-25T17:48:55;4.80;95.50
18729;DHT22;9493;51.884;5.188;2023-02-25T17:51:30;4.80;95.70
18729;DHT22;9493;51.884;5.188;2023-02-25T17:53:58;4.70;95.80
18729;DHT22;9493;51.884;5.188;2023-02-25T17:56:29;4.70;96.00
18729;DHT22;9493;51.884;5.188;2023-02-25T17:58:59;4.60;96.10
18729;DHT22;9493;51.884;5.188;2023-02-25T18:01:28;4.50;96.20
18729;DHT22;9493;51.884;5.188;2023-02-25T18:03:57;4.50;96.30
18729;DHT22;9493;51.884;5.188;2023-02-25T18:09:28;4.40;96.60
18729;DHT22;9493;51.884;5.188;2023-02-25T18:12:01;4.40;96.70
18729;DHT22;9493;51.884;5.188;2023-02-25T18:14:33;4.30;96.80
18729;DHT22;9493;51.884;5.188;2023-02-25T18:19:37;4.30;97.10
18729;DHT22;9493;51.884;5.188;2023-02-25T18:22:06;4.20;97.20
18729;DHT22;9493;51.884;5.188;2023-02-25T18:24:36;4.20;97.30
18729;DHT22;9493;51.884;5.188;2023-02-25T18:27:20;4.20;97.30
18729;DHT22;9493;51.884;5.188;2023-02-25T18:29:49;4.00;97.40
18729;DHT22;9493;51.884;5.188;2023-02-25T18:32:16;4.00;97.60
18729;DHT22;9493;51.884;5.188;2023-02-25T18:34:43;4.00;97.70
18729;DHT22;9493;51.884;5.188;2023-02-25T18:37:13;3.90;97.90
18729;DHT22;9493;51.884;5.188;2023-02-25T18:39:42;3.80;98.10
18729;DHT22;9493;51.884;5.188;2023-02-25T18:42:14;3.80;98.30
18729;DHT22;9493;51.884;5.188;2023-02-25T18:44:42;3.80;98.50
18729;DHT22;9493;51.884;5.188;2023-02-25T18:47:09;3.70;98.70
18729;DHT22;9493;51.884;5.188;2023-02-25T18:49:35;3.70;99.00
18729;DHT22;9493;51.884;5.188;2023-02-25T18:52:02;3.60;99.30
18729;DHT22;9493;51.884;5.188;2023-02-25T18:54:29;3.50;99.50
18729;DHT22;9493;51.884;5.188;2023-02-25T18:56:56;3.50;99.60
18729;DHT22;9493;51.884;5.188;2023-02-25T18:59:24;3.40;99.70
18729;DHT22;9493;51.884;5.188;2023-02-25T19:01:51;3.40;99.80
18729;DHT22;9493;51.884;5.188;2023-02-25T19:04:18;3.30;99.90
18729;DHT22;9493;51.884;5.188;2023-02-25T19:06:45;3.30;99.90
18729;DHT22;9493;51.884;5.188;2023-02-25T19:09:12;3.20;99.90
18729;DHT22;9493;51.884;5.188;2023-02-25T19:11:39;3.20;99.90
18729;DHT22;9493;51.884;5.188;2023-02-25T19:14:06;3.10;99.90
18729;DHT22;9493;51.884;5.188;2023-02-25T19:16:34;3.00;99.90
18729;DHT22;9493;51.884;5.188;2023-02-25T19:19:01;3.10;99.90
18729;DHT22;9493;51.884;5.188;2023-02-25T19:21:28;3.00;99.90
18729;DHT22;9493;51.884;5.188;2023-02-25T19:23:55;2.90;99.90
18729;DHT22;9493;51.884;5.188;2023-02-25T19:26:22;2.90;99.90
18729;DHT22;9493;51.884;5.188;2023-02-25T19:28:50;2.70;99.90
18729;DHT22;9493;51.884;5.188;2023-02-25T19:31:16;2.70;99.90
18729;DHT22;9493;51.884;5.188;2023-02-25T19:33:45;2.70;99.90
18729;DHT22;9493;51.884;5.188;2023-02-25T19:36:12;2.70;99.90
18729;DHT22;9493;51.884;5.188;2023-02-25T19:38:39;2.60;99.90
18729;DHT22;9493;51.884;5.188;2023-02-25T19:41:05;2.60;99.90
18729;DHT22;9493;51.884;5.188;2023-02-25T19:43:34;2.50;99.90
18729;DHT22;9493;51.884;5.188;2023-02-25T19:46:01;2.50;99.90
18729;DHT22;9493;51.884;5.188;2023-02-25T19:48:32;2.50;99.90
18729;DHT22;9493;51.884;5.188;2023-02-25T19:51:05;2.50;99.90
18729;DHT22;9493;51.884;5.188;2023-02-25T19:53:32;2.40;99.90
18729;DHT22;9493;51.884;5.188;2023-02-25T19:55:59;2.30;99.90
18729;DHT22;9493;51.884;5.188;2023-02-25T19:58:27;2.20;99.90
18729;DHT22;9493;51.884;5.188;2023-02-25T20:01:00;2.20;99.90
18729;DHT22;9493;51.884;5.188;2023-02-25T20:03:27;2.10;99.90
18729;DHT22;9493;51.884;5.188;2023-02-25T20:05:53;2.10;99.90
18729;DHT22;9493;51.884;5.188;2023-02-25T20:08:22;2.10;99.90
18729;DHT22;9493;51.884;5.188;2023-02-25T20:10:49;2.20;99.90
18729;DHT22;9493;51.884;5.188;2023-02-25T20:13:16;2.10;99.90
18729;DHT22;9493;51.884;5.188;2023-02-25T20:15:43;2.10;99.90
18729;DHT22;9493;51.884;5.188;2023-02-25T20:18:10;2.10;99.90
18729;DHT22;9493;51.884;5.188;2023-02-25T20:20:40;2.00;99.90
18729;DHT22;9493;51.884;5.188;2023-02-25T20:23:07;1.90;99.90
18729;DHT22;9493;51.884;5.188;2023-02-25T20:25:35;1.90;99.90
18729;DHT22;9493;51.884;5.188;2023-02-25T20:28:03;1.80;99.90
18729;DHT22;9493;51.884;5.188;2023-02-25T20:30:29;1.80;99.90
18729;DHT22;9493;51.884;5.188;2023-02-25T20:32:57;1.80;99.90
18729;DHT22;9493;51.884;5.188;2023-02-25T20:35:25;1.80;99.90
18729;DHT22;9493;51.884;5.188;2023-02-25T20:38:03;1.70;99.90
18729;DHT22;9493;51.884;5.188;2023-02-25T20:40:33;1.70;99.90
18729;DHT22;9493;51.884;5.188;2023-02-25T20:43:01;1.60;99.90
18729;DHT22;9493;51.884;5.188;2023-02-25T20:45:29;1.60;99.90
18729;DHT22;9493;51.884;5.188;2023-02-25T20:47:56;1.60;99.90
18729;DHT22;9493;51.884;5.188;2023-02-25T20:50:27;1.50;99.90
18729;DHT22;9493;51.884;5.188;2023-02-25T20:52:54;1.50;99.90
18729;DHT22;9493;51.884;5.188;2023-02-25T20:55:21;1.40;99.90
18729;DHT22;9493;51.884;5.188;2023-02-25T20:57:48;1.50;99.90
18729;DHT22;9493;51.884;5.188;2023-02-25T21:00:17;1.50;99.90
18729;DHT22;9493;51.884;5.188;2023-02-25T21:02:45;1.40;99.90
18729;DHT22;9493;51.884;5.188;2023-02-25T21:05:11;1.50;99.90
18729;DHT22;9493;51.884;5.188;2023-02-25T21:07:38;1.50;99.90
18729;DHT22;9493;51.884;5.188;2023-02-25T21:10:07;1.50;99.90
18729;DHT22;9493;51.884;5.188;2023-02-25T21:12:34;1.40;99.90
18729;DHT22;9493;51.884;5.188;2023-02-25T21:15:02;1.40;99.90
18729;DHT22;9493;51.884;5.188;2023-02-25T21:17:30;1.30;99.90
18729;DHT22;9493;51.884;5.188;2023-02-25T21:19:57;1.30;99.90
18729;DHT22;9493;51.884;5.188;2023-02-25T21:22:24;1.30;99.90
18729;DHT22;9493;51.884;5.188;2023-02-25T21:24:51;1.30;99.90
18729;DHT22;9493;51.884;5.188;2023-02-25T21:27:18;1.20;99.90
18729;DHT22;9493;51.884;5.188;2023-02-25T21:29:45;1.20;99.90
18729;DHT22;9493;51.884;5.188;2023-02-25T21:32:11;1.20;99.90
18729;DHT22;9493;51.884;5.188;2023-02-25T21:34:40;1.20;99.90
18729;DHT22;9493;51.884;5.188;2023-02-25T21:37:07;1.10;99.90
18729;DHT22;9493;51.884;5.188;2023-02-25T21:39:33;1.10;99.90
18729;DHT22;9493;51.884;5.188;2023-02-25T21:42:00;1.00;99.90
18729;DHT22;9493;51.884;5.188;2023-02-25T21:44:27;1.00;99.90
18729;DHT22;9493;51.884;5.188;2023-02-25T21:46:54;1.00;99.90
18729;DHT22;9493;51.884;5.188;2023-02-25T21:49:22;1.00;99.90
18729;DHT22;9493;51.884;5.188;2023-02-25T21:51:50;1.10;99.90
18729;DHT22;9493;51.884;5.188;2023-02-25T21:54:17;1.10;99.90
18729;DHT22;9493;51.884;5.188;2023-02-25T21:56:44;1.10;99.90
18729;DHT22;9493;51.884;5.188;2023-02-25T21:59:11;1.10;99.90
18729;DHT22;9493;51.884;5.188;2023-02-25T22:01:39;1.10;99.90
18729;DHT22;9493;51.884;5.188;2023-02-25T22:04:07;1.10;99.90
18729;DHT22;9493;51.884;5.188;2023-02-25T22:06:34;1.00;99.90
18729;DHT22;9493;51.884;5.188;2023-02-25T22:09:03;1.00;99.90
18729;DHT22;9493;51.884;5.188;2023-02-25T22:11:32;1.00;99.90
18729;DHT22;9493;51.884;5.188;2023-02-25T22:14:01;0.90;99.90
18729;DHT22;9493;51.884;5.188;2023-02-25T22:16:28;0.90;99.90
18729;DHT22;9493;51.884;5.188;2023-02-25T22:18:55;0.90;99.90
18729;DHT22;9493;51.884;5.188;2023-02-25T22:21:23;0.80;99.90
18729;DHT22;9493;51.884;5.188;2023-02-25T22:23:53;0.80;99.90
18729;DHT22;9493;51.884;5.188;2023-02-25T22:26:23;0.80;99.90
18729;DHT22;9493;51.884;5.188;2023-02-25T22:28:52;0.80;99.90
18729;DHT22;9493;51.884;5.188;2023-02-25T22:31:19;0.80;99.90
18729;DHT22;9493;51.884;5.188;2023-02-25T22:33:46;0.80;99.90
18729;DHT22;9493;51.884;5.188;2023-02-25T22:36:15;0.80;99.90
18729;DHT22;9493;51.884;5.188;2023-02-25T22:38:43;0.70;99.90
18729;DHT22;9493;51.884;5.188;2023-02-25T22:41:12;0.70;99.90
18729;DHT22;9493;51.884;5.188;2023-02-25T22:43:40;0.70;99.90
18729;DHT22;9493;51.884;5.188;2023-02-25T22:46:09;0.70;99.90
18729;DHT22;9493;51.884;5.188;2023-02-25T22:48:41;0.70;99.90
18729;DHT22;9493;51.884;5.188;2023-02-25T22:51:08;0.70;99.90
18729;DHT22;9493;51.884;5.188;2023-02-25T22:53:35;0.70;99.90
18729;DHT22;9493;51.884;5.188;2023-02-25T22:56:04;0.60;99.90
18729;DHT22;9493;51.884;5.188;2023-02-25T22:58:32;0.60;99.90
18729;DHT22;9493;51.884;5.188;2023-02-25T23:01:00;0.50;99.90
18729;DHT22;9493;51.884;5.188;2023-02-25T23:03:27;0.50;99.90
18729;DHT22;9493;51.884;5.188;2023-02-25T23:05:54;0.50;99.90
18729;DHT22;9493;51.884;5.188;2023-02-25T23:08:21;0.50;99.90
18729;DHT22;9493;51.884;5.188;2023-02-25T23:10:48;0.50;99.90
18729;DHT22;9493;51.884;5.188;2023-02-25T23:13:15;0.40;99.90
18729;DHT22;9493;51.884;5.188;2023-02-25T23:15:42;0.40;99.90
18729;DHT22;9493;51.884;5.188;2023-02-25T23:18:14;0.40;99.90
18729;DHT22;9493;51.884;5.188;2023-02-25T23:20:41;0.40;99.90
18729;DHT22;9493;51.884;5.188;2023-02-25T23:23:08;0.40;99.90
18729;DHT22;9493;51.884;5.188;2023-02-25T23:25:39;0.30;99.90
18729;DHT22;9493;51.884;5.188;2023-02-25T23:28:08;0.30;99.90
18729;DHT22;9493;51.884;5.188;2023-02-25T23:30:35;0.30;99.90
18729;DHT22;9493;51.884;5.188;2023-02-25T23:33:03;0.30;99.90
18729;DHT22;9493;51.884;5.188;2023-02-25T23:35:31;0.30;99.90
18729;DHT22;9493;51.884;5.188;2023-02-25T23:37:59;0.30;99.90
18729;DHT22;9493;51.884;5.188;2023-02-25T23:40:25;0.30;99.90
18729;DHT22;9493;51.884;5.188;2023-02-25T23:42:53;0.20;99.90
18729;DHT22;9493;51.884;5.188;2023-02-25T23:45:20;0.30;99.90
18729;DHT22;9493;51.884;5.188;2023-02-25T23:47:50;0.30;99.90
18729;DHT22;9493;51.884;5.188;2023-02-25T23:50:17;0.30;99.90
18729;DHT22;9493;51.884;5.188;2023-02-25T23:52:45;0.40;99.90
18729;DHT22;9493;51.884;5.188;2023-02-25T23:55:13;0.50;99.90
18729;DHT22;9493;51.884;5.188;2023-02-25T23:57:41;0.50;99.90
